createdAt,value
2017-07-16T00:02:08.923Z,14.00
2017-07-16T00:04:36.491Z,14.00
2017-07-16T00:07:04.034Z,14.00
2017-07-16T00:09:31.572Z,14.00
2017-07-16T00:11:59.128Z,14.00
2017-07-16T00:14:26.684Z,14.10
2017-07-16T00:16:54.210Z,14.20
2017-07-16T00:19:21.779Z,14.20
2017-07-16T00:21:49.309Z,14.30
2017-07-16T00:24:16.853Z,14.30
2017-07-16T00:26:44.374Z,14.30
2017-07-16T00:29:11.889Z,14.30
2017-07-16T00:31:39.385Z,14.30
2017-07-16T00:34:06.928Z,14.30
2017-07-16T00:36:34.433Z,14.30
2017-07-16T00:39:01.934Z,14.30
2017-07-16T00:41:29.550Z,14.30
2017-07-16T00:43:57.065Z,14.30
2017-07-16T00:46:24.609Z,14.30
2017-07-16T00:48:52.128Z,14.30
2017-07-16T00:51:19.694Z,14.30
2017-07-16T00:53:47.221Z,14.40
2017-07-16T00:56:14.770Z,14.40
2017-07-16T00:58:42.314Z,14.40
2017-07-16T01:01:09.838Z,14.50
2017-07-16T01:03:37.386Z,14.50
2017-07-16T01:06:04.899Z,14.40
2017-07-16T01:08:32.400Z,14.40
2017-07-16T01:10:59.948Z,14.40
2017-07-16T01:13:27.489Z,14.40
2017-07-16T01:15:55.037Z,14.40
2017-07-16T01:18:22.565Z,14.30
2017-07-16T01:20:50.088Z,14.40
2017-07-16T01:23:17.580Z,14.40
2017-07-16T01:25:45.102Z,14.40
2017-07-16T01:28:12.650Z,14.40
2017-07-16T01:30:40.189Z,14.30
2017-07-16T01:33:07.717Z,14.40
2017-07-16T01:35:36.124Z,14.30
2017-07-16T01:38:03.645Z,14.40
2017-07-16T01:40:31.197Z,14.30
2017-07-16T01:42:58.735Z,14.30
2017-07-16T01:45:26.266Z,14.30
2017-07-16T01:47:53.788Z,14.30
2017-07-16T01:50:21.326Z,14.30
2017-07-16T01:52:48.879Z,14.40
2017-07-16T01:55:16.401Z,14.40
2017-07-16T01:57:43.994Z,14.40
2017-07-16T02:00:11.563Z,14.50
2017-07-16T02:02:39.162Z,14.50
2017-07-16T02:05:06.697Z,14.50
2017-07-16T02:07:34.229Z,14.50
2017-07-16T02:10:01.793Z,14.60
2017-07-16T02:12:29.354Z,14.60
2017-07-16T02:14:56.892Z,14.70
2017-07-16T02:17:24.482Z,14.70
2017-07-16T02:19:52.038Z,14.80
2017-07-16T02:22:19.584Z,14.70
2017-07-16T02:24:47.132Z,14.70
2017-07-16T02:27:14.671Z,14.70
2017-07-16T02:29:42.193Z,14.70
2017-07-16T02:32:09.727Z,14.80
2017-07-16T02:34:37.236Z,14.80
2017-07-16T02:37:04.761Z,14.80
2017-07-16T02:39:32.264Z,14.80
2017-07-16T02:41:59.784Z,14.80
2017-07-16T02:44:27.296Z,14.80
2017-07-16T02:46:54.779Z,14.80
2017-07-16T02:49:22.325Z,14.80
2017-07-16T02:51:49.822Z,14.80
2017-07-16T02:54:17.330Z,14.80
2017-07-16T02:56:44.861Z,14.80
2017-07-16T02:59:12.376Z,14.80
2017-07-16T03:01:39.927Z,14.70
2017-07-16T03:04:07.430Z,14.70
2017-07-16T03:06:34.936Z,14.80
2017-07-16T03:09:02.457Z,14.80
2017-07-16T03:11:30.024Z,14.80
2017-07-16T03:13:57.570Z,14.80
2017-07-16T03:16:25.128Z,14.80
2017-07-16T03:18:52.654Z,14.80
2017-07-16T03:21:20.189Z,14.80
2017-07-16T03:23:47.697Z,14.80
2017-07-16T03:26:15.242Z,14.80
2017-07-16T03:28:42.774Z,14.80
2017-07-16T03:31:10.241Z,14.80
2017-07-16T03:33:37.758Z,14.80
2017-07-16T03:36:05.276Z,14.80
2017-07-16T03:38:32.787Z,14.80
2017-07-16T03:41:00.297Z,14.80
2017-07-16T03:43:27.811Z,14.80
2017-07-16T03:45:55.333Z,14.80
2017-07-16T03:48:22.824Z,14.80
2017-07-16T03:50:50.365Z,14.80
2017-07-16T03:53:17.869Z,14.80
2017-07-16T03:55:45.363Z,14.80
2017-07-16T03:58:12.877Z,14.80
2017-07-16T04:00:40.372Z,14.80
2017-07-16T04:03:07.869Z,14.80
2017-07-16T04:05:35.398Z,14.80
2017-07-16T04:08:02.923Z,14.80
2017-07-16T04:10:30.461Z,14.80
2017-07-16T04:12:57.996Z,14.90
2017-07-16T04:15:25.539Z,14.90
2017-07-16T04:17:53.085Z,14.90
2017-07-16T04:20:20.628Z,15.00
2017-07-16T04:22:48.154Z,15.00
2017-07-16T04:25:15.726Z,15.00
2017-07-16T04:27:43.292Z,15.00
2017-07-16T04:30:10.828Z,15.00
2017-07-16T04:32:38.357Z,15.00
2017-07-16T04:35:05.884Z,15.00
2017-07-16T04:37:33.366Z,15.00
2017-07-16T04:40:00.863Z,15.00
2017-07-16T04:42:28.417Z,15.00
2017-07-16T04:44:55.954Z,15.00
2017-07-16T04:47:23.547Z,15.10
2017-07-16T04:49:51.082Z,15.10
2017-07-16T04:52:18.608Z,15.20
2017-07-16T04:54:46.118Z,15.40
2017-07-16T04:57:13.682Z,15.50
2017-07-16T04:59:41.249Z,15.70
2017-07-16T05:02:08.799Z,16.00
2017-07-16T05:04:36.296Z,16.20
2017-07-16T05:07:03.817Z,16.30
2017-07-16T05:09:31.320Z,16.50
2017-07-16T05:11:58.878Z,16.70
2017-07-16T05:14:26.440Z,16.80
2017-07-16T05:16:53.986Z,16.90
2017-07-16T05:19:21.513Z,17.10
2017-07-16T05:21:49.075Z,17.10
2017-07-16T05:24:16.589Z,17.20
2017-07-16T05:26:44.161Z,17.20
2017-07-16T05:29:11.669Z,17.20
2017-07-16T05:31:39.166Z,17.30
2017-07-16T05:34:06.697Z,17.40
2017-07-16T05:36:34.208Z,17.50
2017-07-16T05:39:01.728Z,17.60
2017-07-16T05:41:29.406Z,17.70
2017-07-16T05:43:59.199Z,17.60
2017-07-16T05:49:35.624Z,17.80
2017-07-16T05:52:03.194Z,18.00
2017-07-16T05:54:30.747Z,18.10
2017-07-16T05:56:59.350Z,18.40
2017-07-16T05:59:27.301Z,18.40
2017-07-16T06:01:54.921Z,18.40
2017-07-16T06:04:22.542Z,18.30
2017-07-16T06:06:50.111Z,18.20
2017-07-16T06:09:17.633Z,18.30
2017-07-16T06:11:45.188Z,18.30
2017-07-16T06:14:12.709Z,18.30
2017-07-16T06:16:40.229Z,18.10
2017-07-16T06:19:07.778Z,18.20
2017-07-16T06:21:35.322Z,18.50
2017-07-16T06:24:02.863Z,18.80
2017-07-16T06:26:30.599Z,19.10
2017-07-16T06:28:58.239Z,19.30
2017-07-16T06:31:26.049Z,19.40
2017-07-16T06:33:53.596Z,19.70
2017-07-16T06:36:21.093Z,20.10
2017-07-16T06:38:48.715Z,20.30
2017-07-16T06:41:16.234Z,20.70
2017-07-16T06:43:43.765Z,21.10
2017-07-16T06:46:11.274Z,21.40
2017-07-16T06:48:39.037Z,21.40
2017-07-16T06:51:07.184Z,21.50
2017-07-16T06:53:34.743Z,21.50
2017-07-16T06:56:02.269Z,21.50
2017-07-16T06:58:29.815Z,21.30
2017-07-16T07:00:57.341Z,21.20
2017-07-16T07:03:24.933Z,21.20
2017-07-16T07:05:52.466Z,21.20
2017-07-16T07:08:19.986Z,21.20
2017-07-16T07:10:47.557Z,21.40
2017-07-16T07:13:15.149Z,21.70
2017-07-16T07:15:42.728Z,21.80
2017-07-16T07:18:10.328Z,21.80
2017-07-16T07:20:37.878Z,22.10
2017-07-16T07:23:05.453Z,22.20
2017-07-16T07:25:33.009Z,22.30
2017-07-16T07:28:00.668Z,22.10
2017-07-16T07:30:28.199Z,21.80
2017-07-16T07:32:55.713Z,21.70
2017-07-16T07:35:23.207Z,21.70
2017-07-16T07:37:50.737Z,21.90
2017-07-16T07:40:18.233Z,22.10
2017-07-16T07:42:45.758Z,22.40
2017-07-16T07:45:13.257Z,22.40
2017-07-16T07:47:40.768Z,22.00
2017-07-16T07:50:08.262Z,22.10
2017-07-16T07:52:35.759Z,22.40
2017-07-16T07:55:03.276Z,22.70
2017-07-16T07:57:30.784Z,22.80
2017-07-16T07:59:58.318Z,22.70
2017-07-16T08:02:25.811Z,22.60
2017-07-16T08:04:53.330Z,22.30
2017-07-16T08:07:20.867Z,22.00
2017-07-16T08:09:48.397Z,22.00
2017-07-16T08:12:15.924Z,21.80
2017-07-16T08:14:43.450Z,21.60
2017-07-16T08:17:10.962Z,21.50
2017-07-16T08:19:38.469Z,21.50
2017-07-16T08:22:05.973Z,21.40
2017-07-16T08:24:33.493Z,21.40
2017-07-16T08:27:01.114Z,21.70
2017-07-16T08:29:28.654Z,22.00
2017-07-16T08:31:56.160Z,22.60
2017-07-16T08:34:23.706Z,22.90
2017-07-16T08:36:51.246Z,22.90
2017-07-16T08:39:18.782Z,23.00
2017-07-16T08:41:46.296Z,23.30
2017-07-16T08:44:13.833Z,23.40
2017-07-16T08:46:41.366Z,23.30
2017-07-16T08:49:08.899Z,23.30
2017-07-16T08:51:36.409Z,23.40
2017-07-16T08:54:04.645Z,23.50
2017-07-16T08:56:32.173Z,23.70
2017-07-16T08:58:59.727Z,23.90
2017-07-16T09:01:27.356Z,24.00
2017-07-16T09:03:54.894Z,23.90
2017-07-16T09:06:22.528Z,23.80
2017-07-16T09:08:50.085Z,23.60
2017-07-16T09:11:17.577Z,23.30
2017-07-16T09:13:45.132Z,22.90
2017-07-16T09:16:12.710Z,22.90
2017-07-16T09:18:40.225Z,22.50
2017-07-16T09:21:07.716Z,22.20
2017-07-16T09:23:35.230Z,22.10
2017-07-16T09:26:02.740Z,22.10
2017-07-16T09:28:30.247Z,22.20
2017-07-16T09:30:57.771Z,22.50
2017-07-16T09:33:25.270Z,22.80
2017-07-16T09:35:52.802Z,22.70
2017-07-16T09:38:20.313Z,22.70
2017-07-16T09:40:47.837Z,22.70
2017-07-16T09:43:15.338Z,22.50
2017-07-16T09:45:42.849Z,22.40
2017-07-16T09:48:10.339Z,22.20
2017-07-16T09:50:37.848Z,22.00
2017-07-16T09:53:05.351Z,21.80
2017-07-16T09:55:32.881Z,21.60
2017-07-16T09:58:00.380Z,21.50
2017-07-16T10:00:28.100Z,21.20
2017-07-16T10:02:55.594Z,21.20
2017-07-16T10:05:23.117Z,21.20
2017-07-16T10:07:50.624Z,21.10
2017-07-16T10:10:18.127Z,20.90
2017-07-16T10:12:46.195Z,20.90
2017-07-16T10:15:13.720Z,20.80
2017-07-16T10:17:41.217Z,20.70
2017-07-16T10:20:08.749Z,20.70
2017-07-16T10:22:36.248Z,20.60
2017-07-16T10:25:03.766Z,20.40
2017-07-16T10:27:31.295Z,20.30
2017-07-16T10:29:58.816Z,20.30
2017-07-16T10:32:26.312Z,20.40
2017-07-16T10:34:53.822Z,20.60
2017-07-16T10:37:21.326Z,20.70
2017-07-16T10:39:48.843Z,20.90
2017-07-16T10:42:16.336Z,20.90
2017-07-16T10:44:43.841Z,21.00
2017-07-16T10:47:11.343Z,21.00
2017-07-16T10:49:38.857Z,21.00
2017-07-16T10:52:06.386Z,20.90
2017-07-16T10:54:33.892Z,20.90
2017-07-16T10:57:01.380Z,21.00
2017-07-16T10:59:28.885Z,21.10
2017-07-16T11:01:56.371Z,21.10
2017-07-16T11:04:23.877Z,21.20
2017-07-16T11:06:51.379Z,21.30
2017-07-16T11:09:18.873Z,21.20
2017-07-16T11:11:46.384Z,21.20
2017-07-16T11:14:13.889Z,21.40
2017-07-16T11:16:41.408Z,21.60
2017-07-16T11:19:08.896Z,21.90
2017-07-16T11:21:36.407Z,21.90
2017-07-16T11:24:03.893Z,22.00
2017-07-16T11:26:31.421Z,22.10
2017-07-16T11:28:58.927Z,22.40
2017-07-16T11:31:26.453Z,22.80
2017-07-16T11:33:53.955Z,23.20
2017-07-16T11:36:21.472Z,23.60
2017-07-16T11:38:49.193Z,23.90
2017-07-16T11:41:16.738Z,24.00
2017-07-16T11:43:44.240Z,24.20
2017-07-16T11:46:14.127Z,24.20
2017-07-16T11:48:41.611Z,24.50
2017-07-16T11:51:09.133Z,24.80
2017-07-16T11:53:36.623Z,25.10
2017-07-16T11:56:04.721Z,24.80
2017-07-16T11:58:32.217Z,24.60
2017-07-16T12:00:59.724Z,24.70
2017-07-16T12:03:27.226Z,24.80
2017-07-16T12:05:54.751Z,24.70
2017-07-16T12:08:22.379Z,24.60
2017-07-16T12:10:49.912Z,24.60
2017-07-16T12:13:17.692Z,24.40
2017-07-16T12:15:45.329Z,24.50
2017-07-16T12:18:12.973Z,24.50
2017-07-16T12:20:40.505Z,24.60
2017-07-16T12:23:08.028Z,24.70
2017-07-16T12:25:35.546Z,24.70
2017-07-16T12:28:03.060Z,25.00
2017-07-16T12:30:30.585Z,25.30
2017-07-16T12:32:58.091Z,25.50
2017-07-16T12:35:25.963Z,25.70
2017-07-16T12:37:53.493Z,26.00
2017-07-16T12:40:21.054Z,25.90
2017-07-16T12:42:48.573Z,25.90
2017-07-16T12:45:16.087Z,25.80
2017-07-16T12:47:43.589Z,25.90
2017-07-16T12:50:11.098Z,25.80
2017-07-16T12:52:38.621Z,25.70
2017-07-16T12:55:06.163Z,25.70
2017-07-16T12:57:33.749Z,25.60
2017-07-16T13:00:01.285Z,25.70
2017-07-16T13:02:28.823Z,25.80
2017-07-16T13:04:56.321Z,25.80
2017-07-16T13:07:23.925Z,25.60
2017-07-16T13:09:51.415Z,25.60
2017-07-16T13:12:18.925Z,25.60
2017-07-16T13:14:46.433Z,25.60
2017-07-16T13:17:13.960Z,25.60
2017-07-16T13:19:41.464Z,25.50
2017-07-16T13:22:08.964Z,25.60
2017-07-16T13:24:36.461Z,25.80
2017-07-16T13:27:03.981Z,25.70
2017-07-16T13:29:31.497Z,25.50
2017-07-16T13:31:59.084Z,25.30
2017-07-16T13:34:26.586Z,25.30
2017-07-16T13:36:54.104Z,25.30
2017-07-16T13:39:21.595Z,25.30
2017-07-16T13:41:49.113Z,25.30
2017-07-16T13:44:16.606Z,25.50
2017-07-16T13:46:44.140Z,25.60
2017-07-16T13:49:11.641Z,25.50
2017-07-16T13:51:39.144Z,25.50
2017-07-16T13:54:07.469Z,25.40
2017-07-16T13:56:34.991Z,25.50
2017-07-16T13:59:02.510Z,25.70
2017-07-16T14:01:30.029Z,25.90
2017-07-16T14:03:57.527Z,26.00
2017-07-16T14:06:25.750Z,25.90
2017-07-16T14:08:53.257Z,25.90
2017-07-16T14:11:20.819Z,25.80
2017-07-16T14:13:48.357Z,25.80
2017-07-16T14:16:15.877Z,25.70
2017-07-16T14:18:43.400Z,25.50
2017-07-16T14:21:10.929Z,25.40
2017-07-16T14:23:38.433Z,25.40
2017-07-16T14:26:05.952Z,25.20
2017-07-16T14:28:33.440Z,24.90
2017-07-16T14:31:00.953Z,24.70
2017-07-16T14:33:28.811Z,24.70
2017-07-16T14:35:56.385Z,24.60
2017-07-16T14:38:23.934Z,24.50
2017-07-16T14:40:51.464Z,24.60
2017-07-16T14:43:19.005Z,24.40
2017-07-16T14:45:46.506Z,24.40
2017-07-16T14:48:14.156Z,24.20
2017-07-16T14:50:41.946Z,24.10
2017-07-16T14:53:09.518Z,23.80
2017-07-16T14:55:37.958Z,23.80
2017-07-16T14:58:05.484Z,23.80
2017-07-16T15:00:33.007Z,24.00
2017-07-16T15:03:00.552Z,24.00
2017-07-16T15:05:28.070Z,23.90
2017-07-16T15:07:55.628Z,23.90
2017-07-16T15:10:23.138Z,24.10
2017-07-16T15:12:51.130Z,24.50
2017-07-16T15:15:18.651Z,24.70
2017-07-16T15:17:46.205Z,24.80
2017-07-16T15:20:13.743Z,25.00
2017-07-16T15:22:41.268Z,24.90
2017-07-16T15:25:08.767Z,25.00
2017-07-16T15:27:36.302Z,24.90
2017-07-16T15:30:03.818Z,24.80
2017-07-16T15:32:31.405Z,24.70
2017-07-16T15:34:58.951Z,24.70
2017-07-16T15:37:26.464Z,24.70
2017-07-16T15:39:53.990Z,24.80
2017-07-16T15:42:21.480Z,24.80
2017-07-16T15:44:49.105Z,24.80
2017-07-16T15:47:16.658Z,24.90
2017-07-16T15:49:44.208Z,24.90
2017-07-16T15:52:11.745Z,24.90
2017-07-16T15:54:39.299Z,24.90
2017-07-16T15:57:07.049Z,24.80
2017-07-16T15:59:34.603Z,24.80
2017-07-16T16:02:02.124Z,24.60
2017-07-16T16:04:29.678Z,24.60
2017-07-16T16:06:57.190Z,24.50
2017-07-16T16:09:24.730Z,24.40
2017-07-16T16:11:52.233Z,24.40
2017-07-16T16:14:19.773Z,24.30
2017-07-16T16:16:47.290Z,24.30
2017-07-16T16:19:14.821Z,24.20
2017-07-16T16:21:42.316Z,24.20
2017-07-16T16:24:09.820Z,24.10
2017-07-16T16:26:37.332Z,24.10
2017-07-16T16:29:04.853Z,24.00
2017-07-16T16:31:32.398Z,24.00
2017-07-16T16:33:59.907Z,24.00
2017-07-16T16:36:27.441Z,24.10
2017-07-16T16:38:54.949Z,24.10
2017-07-16T16:41:22.468Z,24.00
2017-07-16T16:43:49.958Z,24.00
2017-07-16T16:46:17.484Z,23.90
2017-07-16T16:48:44.988Z,23.70
2017-07-16T16:51:12.516Z,23.60
2017-07-16T16:53:40.013Z,23.50
2017-07-16T16:56:07.527Z,23.40
2017-07-16T16:58:35.026Z,23.30
2017-07-16T17:01:02.569Z,23.20
2017-07-16T17:03:30.069Z,23.20
2017-07-16T17:05:57.589Z,23.10
2017-07-16T17:08:25.080Z,23.10
2017-07-16T17:10:52.603Z,23.00
2017-07-16T17:13:20.101Z,22.90
2017-07-16T17:15:47.617Z,22.90
2017-07-16T17:18:15.129Z,22.80
2017-07-16T17:20:42.662Z,22.60
2017-07-16T17:23:10.151Z,22.50
2017-07-16T17:25:37.659Z,22.50
2017-07-16T17:28:05.155Z,22.40
2017-07-16T17:30:32.673Z,22.20
2017-07-16T17:33:00.169Z,22.00
2017-07-16T17:35:27.678Z,21.90
2017-07-16T17:37:55.189Z,21.80
2017-07-16T17:40:22.713Z,21.80
2017-07-16T17:42:50.218Z,21.90
2017-07-16T17:45:17.737Z,21.90
2017-07-16T17:47:45.648Z,21.90
2017-07-16T17:50:13.246Z,21.90
2017-07-16T17:52:40.762Z,22.00
2017-07-16T17:55:08.289Z,21.90
2017-07-16T17:57:35.798Z,21.70
2017-07-16T18:00:03.380Z,21.50
2017-07-16T18:02:30.902Z,21.30
2017-07-16T18:04:58.505Z,21.10
2017-07-16T18:07:26.133Z,21.10
2017-07-16T18:09:53.898Z,21.00
2017-07-16T18:12:21.532Z,20.90
2017-07-16T18:14:49.205Z,20.80
2017-07-16T18:17:17.261Z,20.80
2017-07-16T18:19:44.815Z,20.80
2017-07-16T18:22:13.183Z,20.70
2017-07-16T18:24:40.732Z,20.70
2017-07-16T18:27:08.377Z,20.70
2017-07-16T18:29:36.177Z,20.60
2017-07-16T18:32:03.695Z,20.50
2017-07-16T18:34:31.237Z,20.50
2017-07-16T18:36:58.756Z,20.50
2017-07-16T18:39:26.262Z,20.50
2017-07-16T18:41:53.780Z,20.40
2017-07-16T18:44:21.280Z,20.40
2017-07-16T18:46:48.800Z,20.30
2017-07-16T18:49:16.293Z,20.30
2017-07-16T18:51:43.826Z,20.30
2017-07-16T18:54:11.425Z,20.20
2017-07-16T18:56:38.993Z,20.10
2017-07-16T18:59:06.736Z,20.10
2017-07-16T19:01:34.518Z,20.00
2017-07-16T19:04:02.219Z,20.00
2017-07-16T19:06:29.736Z,19.90
2017-07-16T19:08:58.255Z,19.80
2017-07-16T19:11:25.811Z,19.80
2017-07-16T19:13:53.321Z,19.70
2017-07-16T19:16:21.509Z,19.60
2017-07-16T19:18:49.063Z,19.60
2017-07-16T19:21:16.727Z,19.50
2017-07-16T19:23:44.276Z,19.50
2017-07-16T19:26:12.705Z,19.40
2017-07-16T19:28:40.291Z,19.30
2017-07-16T19:31:07.792Z,19.30
2017-07-16T19:33:35.308Z,19.20
2017-07-16T19:36:03.061Z,19.20
2017-07-16T19:38:30.811Z,19.20
2017-07-16T19:40:58.473Z,19.10
2017-07-16T19:43:26.016Z,19.10
2017-07-16T19:45:53.533Z,19.00
2017-07-16T19:48:21.205Z,19.00
2017-07-16T19:50:48.795Z,19.00
2017-07-16T19:53:16.378Z,19.00
2017-07-16T19:55:43.904Z,18.90
2017-07-16T19:58:11.514Z,18.90
2017-07-16T20:00:39.073Z,18.90
2017-07-16T20:03:06.592Z,18.90
2017-07-16T20:05:34.139Z,18.80
2017-07-16T20:08:01.659Z,18.80
2017-07-16T20:10:29.161Z,18.80
2017-07-16T20:12:56.706Z,18.70
2017-07-16T20:15:24.209Z,18.70
2017-07-16T20:17:51.795Z,18.70
2017-07-16T20:20:19.358Z,18.70
2017-07-16T20:22:46.866Z,18.60
2017-07-16T20:25:14.381Z,18.70
2017-07-16T20:27:41.921Z,18.70
2017-07-16T20:30:09.477Z,18.60
2017-07-16T20:32:36.998Z,18.60
2017-07-16T20:35:04.562Z,18.50
2017-07-16T20:37:32.078Z,18.50
2017-07-16T20:39:59.599Z,18.50
2017-07-16T20:42:27.190Z,18.50
2017-07-16T20:44:54.716Z,18.50
2017-07-16T20:47:22.253Z,18.50
2017-07-16T20:49:49.790Z,18.40
2017-07-16T20:52:17.354Z,18.40
2017-07-16T20:54:44.896Z,18.40
2017-07-16T20:57:12.429Z,18.40
2017-07-16T20:59:39.966Z,18.40
2017-07-16T21:02:07.494Z,18.40
2017-07-16T21:04:35.044Z,18.30
2017-07-16T21:07:02.577Z,18.30
2017-07-16T21:09:30.188Z,18.30
2017-07-16T21:11:57.689Z,18.30
2017-07-16T21:14:25.213Z,18.30
2017-07-16T21:16:52.718Z,18.20
2017-07-16T21:19:20.246Z,18.20
2017-07-16T21:21:47.741Z,18.20
2017-07-16T21:24:15.256Z,18.20
2017-07-16T21:26:42.756Z,18.30
2017-07-16T21:29:10.312Z,18.20
2017-07-16T21:31:37.828Z,18.20
2017-07-16T21:34:05.368Z,18.20
2017-07-16T21:36:32.888Z,18.20
2017-07-16T21:39:00.484Z,18.10
2017-07-16T21:41:27.977Z,18.10
2017-07-16T21:43:55.500Z,18.10
2017-07-16T21:46:23.006Z,18.10
2017-07-16T21:48:50.543Z,18.10
2017-07-16T21:51:18.069Z,18.10
2017-07-16T21:53:45.642Z,18.10
2017-07-16T21:56:14.250Z,18.10
2017-07-16T21:58:41.817Z,18.10
2017-07-16T22:01:09.426Z,18.10
2017-07-16T22:03:37.002Z,18.00
2017-07-16T22:06:04.519Z,18.00
2017-07-16T22:08:32.057Z,18.00
2017-07-16T22:10:59.576Z,18.00
2017-07-16T22:13:32.648Z,18.00
2017-07-16T22:16:00.164Z,18.00
2017-07-16T22:18:27.766Z,17.90
2017-07-16T22:20:55.317Z,17.90
2017-07-16T22:23:22.842Z,17.80
2017-07-16T22:25:50.374Z,17.80
2017-07-16T22:28:17.886Z,17.90
2017-07-16T22:30:45.429Z,17.80
2017-07-16T22:33:12.997Z,17.80
2017-07-16T22:35:40.555Z,17.70
2017-07-16T22:38:08.070Z,17.80
2017-07-16T22:40:35.616Z,17.80
2017-07-16T22:43:03.140Z,17.70
2017-07-16T22:45:30.660Z,17.70
2017-07-16T22:47:58.165Z,17.70
2017-07-16T22:50:25.663Z,17.70
2017-07-16T22:52:53.185Z,17.70
2017-07-16T22:55:20.688Z,17.70
2017-07-16T22:57:48.200Z,17.70
2017-07-16T23:00:16.537Z,17.70
2017-07-16T23:02:44.049Z,17.60
2017-07-16T23:05:11.548Z,17.50
2017-07-16T23:07:39.067Z,17.50
2017-07-16T23:10:06.587Z,17.50
2017-07-16T23:12:34.096Z,17.40
2017-07-16T23:15:01.616Z,17.40
2017-07-16T23:17:29.106Z,17.40
2017-07-16T23:19:56.634Z,17.40
2017-07-16T23:22:33.847Z,17.40
2017-07-16T23:25:01.372Z,17.30
2017-07-16T23:27:28.876Z,17.40
2017-07-16T23:29:56.388Z,17.40
2017-07-16T23:32:23.912Z,17.30
2017-07-16T23:34:51.409Z,17.30
2017-07-16T23:37:18.931Z,17.30
2017-07-16T23:39:46.424Z,17.30
2017-07-16T23:42:13.947Z,17.30
2017-07-16T23:44:41.453Z,17.30
2017-07-16T23:47:08.966Z,17.20
2017-07-16T23:49:36.480Z,17.20
2017-07-16T23:52:03.972Z,17.20
2017-07-16T23:54:31.495Z,17.10
2017-07-16T23:56:58.995Z,17.10
2017-07-16T23:59:26.535Z,17.10
